American Canyon, California
Current Conditions -  °F | °C
As of 10:01 AM on Saturday 20 Dec 2014 (Local Time) from KAPC Reporting Station
Haze Haze  
Wind Chill: 54°   Ceiling: 2700
Heat Index: 54°   Visibility: 5mi
Dew Point: 53°   Wind: 3mph
Humidity: 97%   Direction: 280°W
Pressure: 30.22"   Gusts: NA
Location:  38.17°N, 122.25°W
Report Text: KAPC 201801Z 28003KT 5SM BR SCT021 BKN027 BKN039 12/12 A3022 RMK AO2 T01220117
Loading
Personal Weather Stations






























Interactive Weather Map New forecast layout! Learn more

10-Day Weather Forecast

Advertisements
Track Severe Weather on mobile